Time;durP1;ratioP1;P1;durP2;ratioP2;P2;SDS_P1;SDS_P2;PMS_P1;PMS_P2;Temp;Humidity;BMP_temperature;BMP_pressure;BME280_temperature;BME280_humidity;BME280_pressure;Samples;Min_cycle;Max_cycle;Signal;HPM_P1;HPM_P2
2023/10/27 00:01:05;;;;;;;8.80;3.80;;;14.30;99.90;;;;;;4995137;28;20472;-74
2023/10/27 00:03:31;;;;;;;8.83;4.63;;;14.30;99.90;;;;;;4997072;28;20467;-75
2023/10/27 00:05:57;;;;;;;6.67;3.40;;;14.30;99.90;;;;;;4994526;28;20182;-75
2023/10/27 00:08:22;;;;;;;10.00;4.20;;;14.30;99.90;;;;;;4993667;28;20294;-74
2023/10/27 00:10:48;;;;;;;8.17;4.47;;;14.30;99.90;;;;;;5003205;28;20199;-76
2023/10/27 00:13:14;;;;;;;17.80;4.67;;;14.20;99.90;;;;;;5002834;28;20185;-76
2023/10/27 00:15:39;;;;;;;9.40;3.50;;;14.30;99.90;;;;;;5002656;28;20180;-75
2023/10/27 00:18:05;;;;;;;10.50;3.80;;;14.30;99.90;;;;;;5001099;28;20177;-75
2023/10/27 00:20:32;;;;;;;10.53;3.70;;;14.30;99.90;;;;;;4998256;28;20213;-75
2023/10/27 00:22:57;;;;;;;10.17;3.13;;;14.30;99.90;;;;;;4988431;28;20576;-75
2023/10/27 00:25:24;;;;;;;11.17;3.90;;;14.30;99.90;;;;;;4993718;28;20433;-75
2023/10/27 00:27:50;;;;;;;7.57;3.57;;;14.30;99.90;;;;;;5002010;28;20212;-74
2023/10/27 00:30:16;;;;;;;10.77;4.90;;;14.30;99.90;;;;;;4995822;28;20826;-75
2023/10/27 00:32:42;;;;;;;10.10;3.20;;;14.30;99.90;;;;;;4999674;28;20295;-74
2023/10/27 00:35:09;;;;;;;6.33;3.20;;;14.20;99.90;;;;;;4998619;28;20432;-75
2023/10/27 00:37:36;;;;;;;14.13;4.10;;;14.20;99.90;;;;;;4998427;28;20436;-75
2023/10/27 00:40:03;;;;;;;9.73;3.87;;;14.10;99.90;;;;;;4993752;28;20547;-75
2023/10/27 00:42:29;;;;;;;5.93;3.90;;;14.00;99.90;;;;;;5000456;28;20818;-75
2023/10/27 00:44:55;;;;;;;7.23;2.67;;;14.00;99.90;;;;;;4992819;28;20444;-74
2023/10/27 00:47:23;;;;;;;8.93;3.17;;;14.00;99.90;;;;;;4995641;28;20464;-74
2023/10/27 00:49:49;;;;;;;7.57;3.40;;;13.90;99.90;;;;;;4991587;28;22131;-75
2023/10/27 00:52:17;;;;;;;8.80;2.90;;;13.90;99.90;;;;;;4999222;28;20568;-75
2023/10/27 00:54:46;;;;;;;7.40;2.80;;;13.80;99.90;;;;;;4993522;28;20244;-75
2023/10/27 00:57:12;;;;;;;5.50;3.00;;;13.90;99.90;;;;;;4994585;28;20453;-74
2023/10/27 00:59:37;;;;;;;12.23;3.43;;;13.80;99.90;;;;;;4990118;28;20476;-74
2023/10/27 01:02:03;;;;;;;7.13;3.07;;;13.80;99.90;;;;;;4993573;28;20192;-74
2023/10/27 01:04:29;;;;;;;10.43;2.73;;;13.70;99.90;;;;;;4995218;28;20598;-74
2023/10/27 01:06:56;;;;;;;4.83;2.83;;;13.70;99.90;;;;;;4995284;28;20189;-75
2023/10/27 01:09:21;;;;;;;6.80;2.30;;;13.70;99.90;;;;;;4997801;28;20262;-74
2023/10/27 01:11:48;;;;;;;10.13;2.63;;;13.70;99.90;;;;;;4996824;28;20436;-74
2023/10/27 01:14:14;;;;;;;6.80;2.80;;;13.60;99.90;;;;;;4999880;28;20181;-74
2023/10/27 01:16:39;;;;;;;7.47;2.83;;;13.70;99.90;;;;;;4997349;28;20435;-73
2023/10/27 01:19:05;;;;;;;7.43;2.40;;;13.70;99.90;;;;;;4995325;28;20208;-73
2023/10/27 01:21:31;;;;;;;5.27;2.50;;;13.70;99.90;;;;;;4997824;28;20189;-74
2023/10/27 01:23:56;;;;;;;13.80;3.33;;;13.70;99.90;;;;;;4990517;28;20251;-73
2023/10/27 01:26:22;;;;;;;7.33;2.77;;;13.70;99.90;;;;;;4989162;28;20217;-74
2023/10/27 01:28:47;;;;;;;6.50;3.23;;;13.60;99.90;;;;;;4994061;28;20206;-73
2023/10/27 01:31:13;;;;;;;5.87;2.50;;;13.60;99.90;;;;;;4995706;28;20549;-73
2023/10/27 01:33:39;;;;;;;6.53;2.37;;;13.50;99.90;;;;;;4994284;28;20177;-73
2023/10/27 01:36:05;;;;;;;4.53;2.10;;;13.50;99.90;;;;;;4991553;28;20193;-74
2023/10/27 01:38:30;;;;;;;6.73;2.20;;;13.50;99.90;;;;;;4993190;28;20256;-73
2023/10/27 01:40:56;;;;;;;6.30;2.30;;;13.50;99.90;;;;;;4991786;28;20480;-73
2023/10/27 01:43:22;;;;;;;5.23;2.40;;;13.50;99.90;;;;;;4994111;28;20260;-73
2023/10/27 01:45:47;;;;;;;5.77;2.53;;;13.40;99.90;;;;;;4994667;28;20173;-73
2023/10/27 01:48:13;;;;;;;6.40;2.13;;;13.40;99.90;;;;;;4993565;28;20263;-73
2023/10/27 01:50:39;;;;;;;8.00;2.53;;;13.40;99.90;;;;;;4987068;28;20198;-73
2023/10/27 01:53:04;;;;;;;5.93;2.87;;;13.40;99.90;;;;;;4994174;28;20185;-74
2023/10/27 01:55:30;;;;;;;6.63;2.33;;;13.40;99.90;;;;;;4993728;28;20209;-74
2023/10/27 01:57:57;;;;;;;5.17;2.20;;;13.40;99.90;;;;;;4992207;28;20188;-74
2023/10/27 02:00:23;;;;;;;6.57;2.33;;;13.30;99.90;;;;;;4993000;28;20210;-74
2023/10/27 02:02:48;;;;;;;8.30;2.30;;;13.30;99.90;;;;;;4999384;28;20478;-74
2023/10/27 02:05:14;;;;;;;7.90;2.30;;;13.30;99.90;;;;;;4991266;28;20660;-74
2023/10/27 02:07:39;;;;;;;5.67;2.00;;;13.20;99.90;;;;;;4993919;28;20198;-73
2023/10/27 02:10:06;;;;;;;5.77;2.53;;;13.20;99.90;;;;;;4991275;28;20201;-74
2023/10/27 02:12:31;;;;;;;4.50;2.30;;;13.20;99.90;;;;;;4986774;28;20240;-75
2023/10/27 02:14:57;;;;;;;9.47;3.50;;;13.20;99.90;;;;;;4995841;28;20464;-75
2023/10/27 02:17:22;;;;;;;6.90;2.63;;;13.10;99.90;;;;;;4996595;28;20181;-75
2023/10/27 02:19:49;;;;;;;5.27;2.57;;;13.20;99.90;;;;;;4997860;28;20752;-75
2023/10/27 02:22:15;;;;;;;5.83;2.33;;;13.20;99.90;;;;;;4992552;28;20196;-75
2023/10/27 02:24:41;;;;;;;7.83;3.27;;;13.10;99.90;;;;;;4986637;28;20445;-75
2023/10/27 02:27:06;;;;;;;9.73;2.77;;;13.10;99.90;;;;;;4995370;28;20200;-75
2023/10/27 02:29:32;;;;;;;7.00;2.03;;;13.20;99.90;;;;;;4993640;28;20209;-74
2023/10/27 02:31:58;;;;;;;5.47;2.30;;;13.20;99.90;;;;;;4993294;28;20178;-74
2023/10/27 02:34:24;;;;;;;6.60;2.07;;;13.10;99.90;;;;;;4988718;28;20182;-74
2023/10/27 02:36:50;;;;;;;5.63;3.00;;;13.20;99.90;;;;;;4992570;28;20173;-74
2023/10/27 02:39:15;;;;;;;5.07;2.13;;;13.20;99.90;;;;;;4994611;28;20444;-72
2023/10/27 02:41:41;;;;;;;5.63;2.33;;;13.10;99.90;;;;;;4991185;28;20276;-73
2023/10/27 02:44:08;;;;;;;6.83;2.30;;;13.20;99.90;;;;;;4998667;28;20189;-74
2023/10/27 02:46:34;;;;;;;7.70;2.40;;;13.20;99.90;;;;;;4996935;28;20644;-74
2023/10/27 02:49:02;;;;;;;4.57;2.17;;;13.20;99.90;;;;;;4991203;28;20506;-74
2023/10/27 02:51:28;;;;;;;5.20;2.20;;;13.10;99.90;;;;;;4999440;28;21018;-75
2023/10/27 02:53:54;;;;;;;7.80;2.40;;;13.10;99.90;;;;;;4997430;28;20521;-75
2023/10/27 02:56:20;;;;;;;9.13;4.30;;;13.10;99.90;;;;;;4999212;28;20169;-75
2023/10/27 02:58:45;;;;;;;4.73;2.23;;;13.10;99.90;;;;;;4988153;28;20215;-75
2023/10/27 03:01:14;;;;;;;5.70;2.13;;;13.00;99.90;;;;;;4996854;28;20208;-72
2023/10/27 03:03:40;;;;;;;10.73;2.50;;;13.10;99.90;;;;;;4993190;28;20204;-74
2023/10/27 03:06:06;;;;;;;5.57;2.20;;;13.10;99.90;;;;;;4993042;28;20428;-74
2023/10/27 03:08:33;;;;;;;6.40;2.27;;;13.10;99.90;;;;;;4994852;28;20470;-74
2023/10/27 03:10:58;;;;;;;5.57;2.43;;;13.20;99.90;;;;;;4994345;28;20451;-75
2023/10/27 03:13:26;;;;;;;6.03;2.07;;;13.20;99.90;;;;;;4995506;28;20584;-75
2023/10/27 03:15:51;;;;;;;4.83;2.30;;;13.20;99.90;;;;;;4996770;28;20172;-75
2023/10/27 03:18:17;;;;;;;7.23;2.30;;;13.20;99.90;;;;;;4994448;28;20437;-75
2023/10/27 03:20:42;;;;;;;6.53;2.30;;;13.20;99.90;;;;;;4992804;28;20209;-75
2023/10/27 03:23:09;;;;;;;8.20;2.60;;;13.20;99.90;;;;;;4991601;28;20205;-74
2023/10/27 03:25:34;;;;;;;4.77;2.20;;;13.10;99.90;;;;;;4997660;28;20190;-74
2023/10/27 03:28:00;;;;;;;4.53;2.77;;;13.20;99.90;;;;;;4999625;28;21177;-74
2023/10/27 03:30:27;;;;;;;4.80;2.73;;;13.30;99.90;;;;;;4999333;28;20619;-74
2023/10/27 03:32:53;;;;;;;6.90;2.53;;;13.20;99.90;;;;;;4996850;28;20425;-75
2023/10/27 03:35:19;;;;;;;7.27;2.20;;;13.30;99.90;;;;;;4994044;28;20868;-75
2023/10/27 03:37:45;;;;;;;10.90;2.60;;;13.20;99.90;;;;;;4989187;28;20496;-74
2023/10/27 03:40:11;;;;;;;11.40;2.30;;;13.30;99.90;;;;;;4995968;28;20464;-74
2023/10/27 03:42:37;;;;;;;6.77;2.80;;;13.30;99.90;;;;;;4994826;28;20185;-74
2023/10/27 03:45:03;;;;;;;5.17;2.10;;;13.30;99.90;;;;;;5002143;28;20930;-74
2023/10/27 03:47:28;;;;;;;9.03;2.60;;;13.30;99.90;;;;;;5000039;28;20205;-74
2023/10/27 03:49:54;;;;;;;6.40;2.60;;;13.20;99.90;;;;;;5000551;28;20458;-75
2023/10/27 03:52:19;;;;;;;4.60;2.20;;;13.20;99.90;;;;;;4996311;28;20196;-74
2023/10/27 03:54:45;;;;;;;7.93;2.60;;;13.20;99.90;;;;;;4995102;28;20228;-75
2023/10/27 03:57:10;;;;;;;6.77;2.20;;;13.20;99.90;;;;;;4995370;28;20217;-75
2023/10/27 03:59:36;;;;;;;7.63;2.60;;;13.10;99.90;;;;;;4997919;28;20212;-74
2023/10/27 04:02:02;;;;;;;3.87;1.90;;;13.20;99.90;;;;;;4993115;28;20185;-74
2023/10/27 04:04:27;;;;;;;3.47;2.10;;;13.20;99.90;;;;;;4998901;28;20196;-75
2023/10/27 04:06:54;;;;;;;6.57;2.67;;;13.10;99.90;;;;;;4995875;28;20215;-75
2023/10/27 04:09:21;;;;;;;4.93;2.10;;;13.10;99.90;;;;;;4997019;28;20224;-74
2023/10/27 04:11:47;;;;;;;5.70;2.00;;;13.10;99.90;;;;;;4996444;28;20444;-75
2023/10/27 04:14:12;;;;;;;8.87;2.00;;;13.20;99.90;;;;;;4994981;28;20456;-74
2023/10/27 04:16:38;;;;;;;4.00;2.10;;;13.20;99.90;;;;;;4993726;28;20232;-75
2023/10/27 04:19:04;;;;;;;4.53;2.00;;;13.20;99.90;;;;;;4998120;28;20187;-74
2023/10/27 04:21:29;;;;;;;5.37;1.80;;;13.10;99.90;;;;;;4993108;28;20221;-75
2023/10/27 04:23:55;;;;;;;4.73;1.93;;;13.20;99.90;;;;;;4997927;28;20209;-75
2023/10/27 04:26:21;;;;;;;7.50;2.30;;;13.20;99.90;;;;;;4996620;28;20314;-75
2023/10/27 04:28:47;;;;;;;4.83;1.87;;;13.10;99.90;;;;;;4995808;28;20577;-74
2023/10/27 04:31:12;;;;;;;4.53;2.23;;;13.10;99.90;;;;;;5006003;28;20189;-74
2023/10/27 04:33:38;;;;;;;6.63;2.83;;;13.20;99.90;;;;;;4998328;28;20181;-73
2023/10/27 04:36:07;;;;;;;9.03;2.40;;;13.20;99.90;;;;;;5000027;28;20184;-74
2023/10/27 04:38:32;;;;;;;6.73;2.40;;;13.20;99.90;;;;;;4996839;28;20173;-74
2023/10/27 04:40:58;;;;;;;4.30;2.23;;;13.20;99.90;;;;;;5000457;28;20459;-75
2023/10/27 04:43:24;;;;;;;6.17;2.40;;;13.20;99.90;;;;;;4992494;28;20188;-74
2023/10/27 04:45:50;;;;;;;3.77;2.23;;;13.20;99.90;;;;;;4995683;28;20182;-75
2023/10/27 04:48:16;;;;;;;4.83;2.23;;;13.20;99.90;;;;;;5002127;28;20201;-74
2023/10/27 04:50:41;;;;;;;4.97;2.20;;;13.20;99.90;;;;;;4999174;28;20459;-74
2023/10/27 04:53:10;;;;;;;4.80;2.33;;;13.10;99.90;;;;;;5001799;28;20423;-74
2023/10/27 04:55:35;;;;;;;5.67;2.50;;;13.10;99.90;;;;;;4995421;28;20182;-75
2023/10/27 04:58:01;;;;;;;4.40;2.00;;;13.10;99.90;;;;;;4991172;28;23383;-74
2023/10/27 05:00:27;;;;;;;6.27;2.93;;;13.10;99.90;;;;;;4997587;28;20268;-74
2023/10/27 05:02:53;;;;;;;5.17;2.30;;;13.00;99.90;;;;;;4999843;28;20423;-75
2023/10/27 05:05:20;;;;;;;4.10;2.17;;;13.10;99.90;;;;;;4997775;28;20181;-75
2023/10/27 05:07:47;;;;;;;4.27;2.10;;;13.00;99.90;;;;;;4999339;28;20892;-74
2023/10/27 05:10:13;;;;;;;6.53;2.60;;;13.00;99.90;;;;;;4998222;28;20585;-74
2023/10/27 05:12:38;;;;;;;7.80;2.77;;;13.00;99.90;;;;;;5001803;28;20531;-76
2023/10/27 05:15:05;;;;;;;5.83;2.73;;;13.10;99.90;;;;;;4993205;28;20216;-74
2023/10/27 05:17:34;;;;;;;5.50;2.57;;;13.00;99.90;;;;;;4996187;28;20189;-74
2023/10/27 05:19:59;;;;;;;7.33;2.40;;;13.00;99.90;;;;;;4991833;28;20545;-74
2023/10/27 05:22:25;;;;;;;7.07;3.07;;;12.90;99.90;;;;;;4993109;28;20425;-73
2023/10/27 05:24:51;;;;;;;6.43;2.27;;;12.80;99.90;;;;;;4995492;28;20233;-74
2023/10/27 05:27:16;;;;;;;4.20;2.20;;;12.70;99.90;;;;;;5000604;28;20717;-74
2023/10/27 05:29:42;;;;;;;8.30;2.83;;;12.60;99.90;;;;;;4981524;28;20213;-74
2023/10/27 05:32:11;;;;;;;4.60;2.30;;;12.60;99.90;;;;;;4995785;28;20174;-74
2023/10/27 05:34:37;;;;;;;5.47;2.87;;;12.50;99.90;;;;;;4998074;28;21198;-74
2023/10/27 05:37:03;;;;;;;5.00;1.93;;;12.40;99.90;;;;;;4996032;28;20518;-74
2023/10/27 05:39:28;;;;;;;6.13;2.70;;;12.50;99.90;;;;;;5000102;28;20284;-74
2023/10/27 05:41:54;;;;;;;3.90;2.40;;;12.50;99.90;;;;;;4993779;28;20898;-74
2023/10/27 05:44:20;;;;;;;5.70;2.40;;;12.50;99.90;;;;;;4995820;28;20818;-75
2023/10/27 05:46:45;;;;;;;4.73;1.83;;;12.40;99.90;;;;;;4988927;28;20177;-75
2023/10/27 05:49:12;;;;;;;3.70;2.20;;;12.50;99.90;;;;;;4993830;28;20255;-74
2023/10/27 05:51:38;;;;;;;3.83;2.10;;;12.50;99.90;;;;;;4993405;28;20973;-75
2023/10/27 05:54:05;;;;;;;2.47;1.87;;;12.50;99.90;;;;;;4994872;28;20441;-75
2023/10/27 05:56:31;;;;;;;5.23;2.03;;;12.50;99.90;;;;;;5000683;28;20266;-75
2023/10/27 05:58:56;;;;;;;5.20;1.97;;;12.50;99.90;;;;;;4991036;28;20436;-74
2023/10/27 06:01:22;;;;;;;3.40;1.93;;;12.50;99.90;;;;;;5000176;28;20860;-74
2023/10/27 06:03:48;;;;;;;3.90;1.90;;;12.50;99.90;;;;;;4995948;28;20221;-75
2023/10/27 06:06:14;;;;;;;2.87;1.80;;;12.50;99.90;;;;;;4994286;28;20756;-74
2023/10/27 06:08:44;;;;;;;3.70;1.77;;;12.50;99.90;;;;;;4993521;28;20461;-75
2023/10/27 06:11:10;;;;;;;2.87;1.80;;;12.50;99.90;;;;;;4996067;28;20289;-75
2023/10/27 06:13:36;;;;;;;7.00;1.90;;;12.50;99.90;;;;;;4999185;28;20420;-74
2023/10/27 06:16:02;;;;;;;2.30;1.53;;;12.60;99.90;;;;;;4986337;28;20415;-74
2023/10/27 06:18:30;;;;;;;4.73;1.80;;;12.50;99.90;;;;;;4995377;28;20189;-74
2023/10/27 06:20:56;;;;;;;3.63;1.60;;;12.60;99.90;;;;;;4992650;28;20451;-73
2023/10/27 06:23:21;;;;;;;2.60;1.57;;;12.60;99.90;;;;;;4998908;28;20424;-76
2023/10/27 06:25:47;;;;;;;2.53;1.40;;;12.60;99.90;;;;;;4990399;28;20177;-74
2023/10/27 06:28:13;;;;;;;6.03;1.80;;;12.60;99.90;;;;;;4996079;28;20251;-72
2023/10/27 06:30:38;;;;;;;2.27;1.47;;;12.70;99.90;;;;;;4999095;28;20293;-72
2023/10/27 06:33:04;;;;;;;2.30;1.47;;;12.70;99.90;;;;;;4996639;28;20218;-73
2023/10/27 06:35:30;;;;;;;4.57;1.90;;;12.60;99.90;;;;;;4995923;28;20251;-73
2023/10/27 06:37:56;;;;;;;2.07;1.43;;;12.60;99.90;;;;;;4989398;28;20191;-72
2023/10/27 06:40:22;;;;;;;2.03;1.40;;;12.60;99.90;;;;;;4993203;28;20239;-72
2023/10/27 06:42:47;;;;;;;2.40;1.80;;;12.60;99.90;;;;;;4987969;28;20177;-72
2023/10/27 06:45:13;;;;;;;2.27;1.40;;;12.60;99.90;;;;;;4983564;28;20439;-73
2023/10/27 06:47:39;;;;;;;3.30;1.60;;;12.70;99.90;;;;;;4990107;28;20291;-73
2023/10/27 06:50:05;;;;;;;2.90;1.60;;;12.70;99.90;;;;;;4990660;28;20205;-73
2023/10/27 06:52:32;;;;;;;4.70;1.63;;;12.80;99.90;;;;;;4990051;28;20428;-73
2023/10/27 06:54:57;;;;;;;2.60;1.70;;;12.80;99.90;;;;;;4989034;28;20446;-73
2023/10/27 06:57:23;;;;;;;3.03;1.50;;;12.90;99.90;;;;;;4990059;28;20854;-73
2023/10/27 06:59:49;;;;;;;2.87;1.50;;;12.80;99.90;;;;;;4985507;28;20304;-74
2023/10/27 07:02:14;;;;;;;4.40;1.70;;;12.90;99.90;;;;;;4989700;28;20193;-73
2023/10/27 07:04:41;;;;;;;2.20;1.37;;;12.90;99.90;;;;;;4989918;28;20836;-73
2023/10/27 07:07:07;;;;;;;2.57;1.80;;;12.90;99.90;;;;;;4988280;28;20192;-73
2023/10/27 07:09:33;;;;;;;2.93;1.50;;;12.90;99.90;;;;;;4993519;28;20444;-73
2023/10/27 07:12:03;;;;;;;2.43;1.50;;;12.90;99.90;;;;;;4994697;28;20475;-74
2023/10/27 07:14:30;;;;;;;4.07;1.70;;;12.90;99.90;;;;;;5014716;28;20190;-73
2023/10/27 07:16:59;;;;;;;2.57;1.47;;;13.00;99.90;;;;;;4988313;28;20794;-74
2023/10/27 07:19:25;;;;;;;2.73;1.80;;;12.90;99.90;;;;;;4991354;28;20475;-73
2023/10/27 07:21:51;;;;;;;3.57;1.90;;;12.90;99.90;;;;;;4988467;28;21352;-72
2023/10/27 07:24:17;;;;;;;2.87;1.73;;;13.00;99.90;;;;;;4993167;28;20511;-72
2023/10/27 07:26:42;;;;;;;2.93;1.57;;;13.00;99.90;;;;;;4990750;28;20235;-72
2023/10/27 07:29:09;;;;;;;3.40;1.77;;;12.90;99.90;;;;;;4992728;28;20235;-73
2023/10/27 07:31:34;;;;;;;1.90;1.40;;;12.90;99.90;;;;;;4992094;28;20432;-73
2023/10/27 07:34:00;;;;;;;3.30;1.23;;;12.90;99.90;;;;;;4995478;28;20974;-73
2023/10/27 07:36:26;;;;;;;3.13;1.60;;;12.90;99.90;;;;;;4985870;28;20200;-73
2023/10/27 07:38:52;;;;;;;2.30;1.40;;;12.90;99.90;;;;;;4988259;28;20189;-73
2023/10/27 07:41:18;;;;;;;2.47;1.50;;;12.90;99.90;;;;;;4999615;28;21057;-74
2023/10/27 07:43:44;;;;;;;2.50;1.40;;;12.90;99.90;;;;;;4993121;28;20428;-73
2023/10/27 07:46:10;;;;;;;5.00;1.50;;;12.90;99.90;;;;;;4995518;28;20268;-73
2023/10/27 07:48:37;;;;;;;3.03;1.40;;;13.00;99.90;;;;;;4989996;28;20214;-73
2023/10/27 07:51:03;;;;;;;3.30;1.70;;;13.00;99.90;;;;;;4994405;28;20502;-73
2023/10/27 07:53:29;;;;;;;2.00;1.40;;;12.90;99.90;;;;;;5001324;28;20473;-74
2023/10/27 07:55:56;;;;;;;3.20;1.63;;;12.90;99.90;;;;;;4993651;28;21124;-73
2023/10/27 07:58:23;;;;;;;1.90;1.33;;;12.90;99.90;;;;;;4990556;28;20451;-74
2023/10/27 08:00:51;;;;;;;3.80;1.30;;;12.90;99.90;;;;;;4992911;28;20489;-74
2023/10/27 08:03:16;;;;;;;2.40;1.50;;;13.00;99.90;;;;;;4998225;28;21210;-74
2023/10/27 08:05:42;;;;;;;5.60;1.50;;;12.90;99.90;;;;;;4994534;28;20432;-73
2023/10/27 08:08:08;;;;;;;2.10;1.20;;;13.00;99.90;;;;;;4999066;28;20558;-73
2023/10/27 08:10:37;;;;;;;3.20;1.30;;;13.00;99.90;;;;;;4998604;28;20288;-74
2023/10/27 08:13:03;;;;;;;3.97;1.70;;;13.10;99.90;;;;;;4997293;28;20967;-73
2023/10/27 08:15:28;;;;;;;3.43;1.70;;;13.10;99.90;;;;;;4996664;28;20415;-73
2023/10/27 08:17:54;;;;;;;2.83;1.50;;;13.10;99.90;;;;;;4994064;28;20195;-73
2023/10/27 08:20:19;;;;;;;3.80;1.70;;;13.10;99.90;;;;;;5012987;28;20200;-72
2023/10/27 08:22:45;;;;;;;2.13;1.30;;;13.10;99.90;;;;;;4995436;28;20185;-73
2023/10/27 08:25:12;;;;;;;3.63;1.47;;;13.10;99.90;;;;;;4993896;28;20268;-73
2023/10/27 08:27:37;;;;;;;2.07;1.23;;;13.20;99.90;;;;;;4995851;28;20557;-73
2023/10/27 08:30:03;;;;;;;3.27;1.77;;;13.10;99.90;;;;;;4996824;28;20456;-72
2023/10/27 08:32:29;;;;;;;2.50;1.30;;;13.10;99.90;;;;;;4995334;28;20653;-73
2023/10/27 08:34:55;;;;;;;2.10;1.33;;;13.10;99.90;;;;;;5000210;28;20434;-73
2023/10/27 08:37:21;;;;;;;3.80;1.33;;;13.10;99.90;;;;;;4997916;28;20183;-73
2023/10/27 08:39:47;;;;;;;1.80;1.17;;;13.20;99.90;;;;;;4990046;28;20435;-74
2023/10/27 08:42:13;;;;;;;2.97;1.40;;;13.20;99.90;;;;;;5005641;28;20220;-73
2023/10/27 08:44:41;;;;;;;2.10;1.20;;;13.20;99.90;;;;;;5007353;28;20222;-72
2023/10/27 08:47:07;;;;;;;6.23;1.30;;;13.30;99.90;;;;;;5001548;28;21429;-73
2023/10/27 08:49:33;;;;;;;2.57;1.20;;;13.40;99.90;;;;;;4998926;28;20951;-73
2023/10/27 08:52:02;;;;;;;3.67;1.30;;;13.40;99.90;;;;;;5001828;28;20198;-73
2023/10/27 08:54:30;;;;;;;2.53;1.40;;;13.50;99.90;;;;;;5001698;28;20174;-73
2023/10/27 08:56:56;;;;;;;1.90;1.37;;;13.50;99.90;;;;;;4998713;28;20416;-74
2023/10/27 08:59:22;;;;;;;3.07;2.73;;;13.50;99.90;;;;;;4997573;28;20437;-73
2023/10/27 09:01:47;;;;;;;2.40;1.40;;;13.50;99.90;;;;;;4998936;28;20538;-73
2023/10/27 09:04:15;;;;;;;2.20;1.57;;;13.40;99.90;;;;;;5001276;28;20574;-73
2023/10/27 09:06:42;;;;;;;3.50;1.70;;;13.40;99.90;;;;;;4999490;28;20174;-73
2023/10/27 09:09:11;;;;;;;4.73;1.53;;;13.50;99.90;;;;;;4999202;28;20581;-74
2023/10/27 09:11:45;;;;;;;3.30;1.57;;;13.60;99.90;;;;;;4996850;28;20440;-73
2023/10/27 09:14:33;;;;;;;2.27;1.50;;;13.70;99.90;;;;;;4996401;28;20476;-73
2023/10/27 09:17:15;;;;;;;5.80;2.90;;;13.80;99.90;;;;;;4999865;28;20447;-73
2023/10/27 09:19:41;;;;;;;4.27;1.50;;;13.70;99.90;;;;;;4997759;28;20461;-72
2023/10/27 09:22:24;;;;;;;3.00;1.40;;;13.70;99.90;;;;;;5003124;28;20421;-73
2023/10/27 09:24:50;;;;;;;5.23;1.80;;;13.70;99.90;;;;;;4995891;28;20283;-73
2023/10/27 09:27:25;;;;;;;4.20;2.13;;;13.60;99.90;;;;;;4999784;28;20462;-73
2023/10/27 09:29:51;;;;;;;2.00;1.33;;;13.60;99.90;;;;;;5000422;28;20297;-74
2023/10/27 09:32:24;;;;;;;2.70;1.47;;;13.60;99.90;;;;;;4996370;28;20474;-73
2023/10/27 09:35:08;;;;;;;3.20;1.60;;;13.60;99.90;;;;;;4993494;28;20176;-72
2023/10/27 09:37:37;;;;;;;2.77;1.73;;;13.60;99.90;;;;;;5018518;28;20959;-74
2023/10/27 09:40:06;;;;;;;2.20;1.40;;;13.60;99.90;;;;;;4995670;28;20457;-73
2023/10/27 09:42:35;;;;;;;3.17;1.53;;;13.70;99.90;;;;;;4996773;28;20431;-73
2023/10/27 09:45:08;;;;;;;4.67;1.50;;;13.70;99.90;;;;;;5001117;28;20430;-73
2023/10/27 09:47:47;;;;;;;2.83;1.80;;;13.70;99.90;;;;;;4992577;28;20472;-73
2023/10/27 09:50:15;;;;;;;4.17;2.07;;;13.60;99.90;;;;;;4999465;28;20431;-73
2023/10/27 09:52:45;;;;;;;4.23;1.63;;;13.60;99.90;;;;;;4994832;28;20436;-73
2023/10/27 09:55:14;;;;;;;4.27;1.77;;;13.60;99.90;;;;;;4994792;28;20423;-73
2023/10/27 09:57:46;;;;;;;4.17;1.60;;;13.60;99.90;;;;;;4995781;28;20453;-73
2023/10/27 10:00:14;;;;;;;3.10;2.17;;;13.60;99.90;;;;;;5000517;28;20574;-73
2023/10/27 10:02:43;;;;;;;3.73;1.80;;;13.70;99.90;;;;;;4997739;28;20425;-73
2023/10/27 10:05:09;;;;;;;2.27;1.47;;;14.00;99.90;;;;;;5002111;28;20446;-73
2023/10/27 10:07:47;;;;;;;4.50;2.00;;;14.10;99.90;;;;;;4997199;28;20525;-73
2023/10/27 10:10:34;;;;;;;4.70;1.70;;;14.10;99.90;;;;;;4996256;28;20448;-73
2023/10/27 10:13:12;;;;;;;3.30;1.50;;;14.20;99.90;;;;;;4997427;28;20473;-73
2023/10/27 10:15:43;;;;;;;3.47;1.50;;;14.20;99.90;;;;;;4999538;28;20429;-72
2023/10/27 10:18:35;;;;;;;3.97;1.73;;;14.30;99.90;;;;;;4996802;28;20455;-73
2023/10/27 10:21:01;;;;;;;2.63;1.80;;;14.40;99.90;;;;;;4994249;28;20522;-73
2023/10/27 10:23:42;;;;;;;5.13;1.90;;;14.50;99.90;;;;;;4995297;28;20871;-73
2023/10/27 10:26:07;;;;;;;2.80;1.60;;;14.60;99.90;;;;;;4988766;28;20420;-73
2023/10/27 10:28:34;;;;;;;5.20;1.90;;;14.70;99.90;;;;;;4999063;28;20965;-73
2023/10/27 10:33:36;;;;;;;5.00;1.80;;;14.70;99.90;;;;;;4996018;28;21561;-73
2023/10/27 10:36:22;;;;;;;5.90;1.97;;;14.70;99.90;;;;;;5001289;28;20936;-73
2023/10/27 10:38:53;;;;;;;6.27;2.43;;;14.70;99.90;;;;;;4998789;28;20519;-73
2023/10/27 10:41:18;;;;;;;9.23;2.10;;;14.70;99.90;;;;;;5001215;28;20431;-73
2023/10/27 10:44:04;;;;;;;9.40;2.60;;;14.70;99.90;;;;;;4995419;28;21435;-73
2023/10/27 10:46:30;;;;;;;7.17;2.20;;;14.70;99.90;;;;;;4995228;28;20662;-73
2023/10/27 10:48:55;;;;;;;4.90;2.73;;;14.90;99.90;;;;;;4995280;28;20523;-73
2023/10/27 10:51:29;;;;;;;9.67;2.37;;;15.00;99.90;;;;;;4994140;28;20719;-73
2023/10/27 10:53:55;;;;;;;5.40;2.30;;;15.20;99.90;;;;;;4994028;28;20185;-73
2023/10/27 10:56:21;;;;;;;3.50;1.90;;;15.10;99.90;;;;;;4998850;28;20400;-72
2023/10/27 10:58:47;;;;;;;4.93;1.80;;;15.10;99.90;;;;;;4991643;28;21115;-72
2023/10/27 11:01:21;;;;;;;8.33;2.03;;;15.00;99.90;;;;;;5000365;28;20509;-72
2023/10/27 11:03:47;;;;;;;4.40;1.60;;;15.10;99.90;;;;;;4999040;28;20250;-72
2023/10/27 11:06:13;;;;;;;6.37;2.47;;;15.00;99.90;;;;;;4980642;28;20489;-72
2023/10/27 11:08:39;;;;;;;3.50;2.00;;;15.20;99.90;;;;;;4991730;28;20785;-73
2023/10/27 11:11:13;;;;;;;8.50;2.37;;;15.30;99.90;;;;;;4995829;28;20205;-72
2023/10/27 11:13:43;;;;;;;4.80;2.13;;;15.30;99.90;;;;;;4997498;28;20511;-72
2023/10/27 11:16:14;;;;;;;5.57;2.00;;;15.10;99.90;;;;;;4992905;28;22596;-71
2023/10/27 11:18:39;;;;;;;9.23;2.77;;;15.20;99.90;;;;;;4992305;28;20442;-72
2023/10/27 11:21:05;;;;;;;4.83;2.03;;;15.10;99.90;;;;;;4991211;28;20448;-72
2023/10/27 11:23:31;;;;;;;6.27;2.23;;;15.00;99.90;;;;;;4991688;28;20235;-73
2023/10/27 11:26:03;;;;;;;4.63;1.67;;;14.90;99.90;;;;;;4996609;28;20197;-75
2023/10/27 11:28:29;;;;;;;4.87;2.60;;;14.80;99.90;;;;;;4995416;28;20482;-72
2023/10/27 11:30:58;;;;;;;5.40;1.87;;;14.60;99.90;;;;;;4993128;28;20876;-73
2023/10/27 11:33:24;;;;;;;5.27;2.27;;;14.50;99.90;;;;;;4994311;28;20428;-73
2023/10/27 11:35:50;;;;;;;3.80;1.80;;;14.30;99.90;;;;;;5002544;28;20485;-77
2023/10/27 11:38:15;;;;;;;4.60;1.80;;;14.20;99.90;;;;;;5001803;28;20192;-76
2023/10/27 11:40:41;;;;;;;4.73;1.80;;;14.10;99.90;;;;;;5020399;28;20220;-77
2023/10/27 11:43:07;;;;;;;4.53;1.80;;;14.00;99.90;;;;;;5017244;28;20182;-76
2023/10/27 11:45:34;;;;;;;7.70;2.43;;;13.70;99.90;;;;;;5014219;28;20185;-78
2023/10/27 11:48:00;;;;;;;8.00;2.27;;;13.50;99.90;;;;;;5024050;28;20197;-76
2023/10/27 11:50:25;;;;;;;5.33;2.17;;;13.60;99.90;;;;;;5029623;28;20477;-75
2023/10/27 11:52:51;;;;;;;4.20;1.50;;;13.60;99.90;;;;;;5014122;28;20185;-76
2023/10/27 11:55:17;;;;;;;4.30;1.60;;;13.80;99.90;;;;;;5023696;28;20187;-75
2023/10/27 11:57:43;;;;;;;5.13;1.50;;;14.00;99.90;;;;;;5028476;28;20275;-75
2023/10/27 12:00:09;;;;;;;7.80;2.10;;;14.00;99.90;;;;;;5011752;28;20456;-74
2023/10/27 12:02:35;;;;;;;7.07;3.30;;;14.10;99.90;;;;;;4995764;28;20433;-72
2023/10/27 12:05:01;;;;;;;5.43;2.30;;;14.20;99.90;;;;;;4999292;28;20479;-72
2023/10/27 12:07:27;;;;;;;5.43;1.80;;;14.20;99.90;;;;;;4993811;28;20276;-72
2023/10/27 12:09:52;;;;;;;4.60;1.80;;;14.60;99.90;;;;;;4992961;28;20924;-72
2023/10/27 12:12:18;;;;;;;6.57;3.30;;;14.80;99.90;;;;;;4995167;28;20197;-73
2023/10/27 12:14:43;;;;;;;6.73;2.80;;;15.00;99.90;;;;;;4996536;28;20193;-73
2023/10/27 12:17:09;;;;;;;3.70;1.57;;;15.40;99.90;;;;;;4998025;28;20556;-72
2023/10/27 12:19:35;;;;;;;2.80;1.57;;;17.00;99.90;;;;;;4992663;28;20214;-72
2023/10/27 12:22:01;;;;;;;2.70;1.33;;;18.20;99.90;;;;;;5002594;28;20178;-72
2023/10/27 12:24:27;;;;;;;4.50;1.57;;;19.80;99.90;;;;;;4997527;28;20976;-73
2023/10/27 12:26:55;;;;;;;2.90;1.50;;;19.60;99.90;;;;;;5005010;28;20208;-72
2023/10/27 12:29:26;;;;;;;3.40;2.00;;;18.50;99.90;;;;;;4993490;28;20471;-72
2023/10/27 12:31:51;;;;;;;3.43;1.50;;;18.00;99.90;;;;;;4999488;28;20817;-73
2023/10/27 12:34:18;;;;;;;2.57;1.63;;;17.70;99.90;;;;;;4993608;28;20447;-72
2023/10/27 12:36:45;;;;;;;5.13;1.93;;;17.40;99.90;;;;;;5008097;28;20187;-72
2023/10/27 12:39:11;;;;;;;2.50;1.50;;;17.20;99.90;;;;;;5001920;28;20499;-72
2023/10/27 12:41:37;;;;;;;3.30;1.40;;;16.90;99.90;;;;;;5004791;28;20423;-72
2023/10/27 12:44:03;;;;;;;5.13;1.67;;;16.50;99.90;;;;;;5002918;28;20656;-76
2023/10/27 12:46:28;;;;;;;3.13;1.67;;;16.30;99.90;;;;;;4998040;28;20252;-77